AirNav   Duncan Aviation - Near you to keep you flying
 
 1136 users online  

MO75 Brownsberger Airport
Montrose, Missouri, USA

GOING TO MONTROSE?


FAA INFORMATION EFFECTIVE 03 NOVEMBER 2022

Location

FAA Identifier: MO75
Lat/Long: 38-18-18.0810N 094-03-11.7940W
38-18.301350N 094-03.196567W
38.3050225,-94.0532761
(estimated)
Elevation: 794 ft. / 242 m (estimated)
Variation: 05E (1985)
From city: 8 miles NW of MONTROSE, MO
Time zone: UTC -6 (UTC -5 during Daylight Saving Time)
Zip code: 64770

Airport Operations

Airport use: Private use. Permission required prior to landing
Activation date: 05/1989
Control tower: no
ARTCC: KANSAS CITY CENTER
FSS: COLUMBIA FLIGHT SERVICE STATION
Attendance: MON-SAT DUSK-DAWN
Wind indicator: yes
Segmented circle: no

Airport Communications

WX AWOS-3PT at GLY (18 nm E): 120.475 (660-885-3851)

Nearby radio navigation aids

VOR radial/distance  VOR name  Freq  Var
BUMr077/20.6BUTLER VORTAC115.9007E

Airport Services

Runway Information

Runway 18/36

Dimensions: 1300 x 50 ft. / 396 x 15 m
Surface: turf
RUNWAY 18  RUNWAY 36
Traffic pattern: leftleft

Airport Ownership and Management from official FAA records

Ownership: Privately-owned
Owner: WALTER BROWNSBERGER
15015 MELROSE
OVERLAND PARK, KS 66221
Phone 913-897-4828
Manager: WALTER BROWNSBERGER
15015 MELROSE
OVERLAND PARK, KS 66221
Phone 913-897-4828

Airport Operational Statistics

Aircraft based on the field: 1
Single engine airplanes: 1
    

Additional Remarks

FOR CD CTC WHITEMAN APCH AT 660-687-3132. WHEN WHITEMAN APCH IS CLSD, CTC KANSAS CITY ARTCC AT 913-254-8508.

Instrument Procedures

There are no published instrument procedures at MO75.

Some nearby airports with instrument procedures:

KBUM - Butler Memorial Airport (14 nm W)
KGLY - Clinton Regional Airport (18 nm E)
KLRY - Lawrence Smith Memorial Airport (23 nm NW)
KNVD - Nevada Municipal Airport (30 nm SW)
KRCM - Skyhaven Airport (31 nm N)
 
Loc | Ops | Rwys | IFR | FBO | Links
Com | Nav | Svcs | Stats | Notes
Area around MO75 (Brownsberger Airport)
 
Road maps at: MapQuest Bing Google
 
Aerial photo
No photo
 
Sectional chart

 
Airport distance calculator
Flying to Brownsberger Airport? Find the distance to fly.

From to MO75

Sunrise and sunset
Times for 29-Nov-2022
 Local
(UTC-6)
 Zulu
(UTC)
Morning civil twilight06:4412:44
Sunrise07:1313:13
Sunset16:5622:56
Evening civil twilight17:2523:25

Current date and time
Zulu (UTC)  29-Nov-2022 23:36:24
Local (UTC-6)  29-Nov-2022 17:36:24
 
METAR
KGLY 
18nm E 
292315Z AUTO 32013G19KT 10SM OVC018 03/M01 A2979 RMK AO2
KLRY 
23nm NW 
292315Z AUTO 33011G21KT 10SM OVC021 02/M02 A2985 RMK AO2
KRCM 
31nm N 
292315Z AUTO 29012G16KT 10SM OVC017 01/M02 A2981 RMK AO2
KRAW 
33nm E 
292315Z AUTO 31011G17KT 10SM OVC017 02/00 A2977 RMK AO2
KSZL 
35nm NE 
292255Z 31018G24KT 10SM OVC015 02/M02 A2971 RMK AO2A PK WND 33027/10 PRESRR SLP067 T00191021 $
TAF
KSZL 
35nm NE 
291900Z 2919/0101 24025G35KT 9999 BKN040 QNH2940INS BECMG 2919/2921 30025G35KT 9999 OVC020 QNH2945INS BECMG 3003/3004 31015G25KT 9999 BKN040 620402 QNH2980INS BECMG 3006/3007 30012KT 9999 FEW120 QNH3010INS BECMG 3015/3016 29012G20KT 9999 SKC QNH3030INS TX18/2919Z TNM03/3012Z
NOTAMs
Click for the latest NOTAMs
NOTAMs are issued by the DoD/FAA and will open in a separate window not controlled by AirNav.

 

 
 

Would you like to see your business listed on this page?

 If your business provides an interesting product or service to pilots, flight crews, aircraft, or users of the Brownsberger Airport, you should consider listing it here.  To start the listing process, click on the button below
 
Add a business
 

Other Pages about Brownsberger Airport

Update a link
 
Copyright © AirNav, LLC. All rights reserved. Privacy Policy  Contact